Time;durP1;ratioP1;P1;durP2;ratioP2;P2;SDS_P1;SDS_P2;PMS_P1;PMS_P2;Temp;Humidity;BMP_temperature;BMP_pressure;BME280_temperature;BME280_humidity;BME280_pressure;Samples;Min_cycle;Max_cycle;Signal;HPM_P1;HPM_P2
2021/03/19 00:01:07;;;;;;;12.07;8.83;;;4.10;99.90;;;;;;5095831;28;20172;-69
2021/03/19 00:03:33;;;;;;;13.40;8.35;;;4.20;99.90;;;;;;5095674;28;20191;-69
2021/03/19 00:05:59;;;;;;;10.53;7.97;;;4.20;99.90;;;;;;5095538;28;20539;-69
2021/03/19 00:08:24;;;;;;;12.57;8.70;;;4.10;99.90;;;;;;5095741;28;20152;-69
2021/03/19 00:10:50;;;;;;;11.80;8.17;;;4.10;99.90;;;;;;5095786;28;20271;-69
2021/03/19 00:13:15;;;;;;;11.87;7.90;;;4.10;99.90;;;;;;5095460;28;20236;-69
2021/03/19 00:15:41;;;;;;;16.43;8.07;;;3.90;99.90;;;;;;5095777;28;20193;-69
2021/03/19 00:18:08;;;;;;;14.17;8.80;;;4.00;99.90;;;;;;5095458;28;20167;-69
2021/03/19 00:20:38;;;;;;;12.68;8.45;;;3.90;99.90;;;;;;5095422;28;20255;-69
2021/03/19 00:23:05;;;;;;;11.35;8.32;;;3.90;99.90;;;;;;5095609;28;20213;-69
2021/03/19 00:25:32;;;;;;;8.90;7.80;;;3.90;99.90;;;;;;5095298;28;20250;-69
2021/03/19 00:27:57;;;;;;;12.32;7.88;;;3.70;99.90;;;;;;5095285;28;20186;-69
2021/03/19 00:30:23;;;;;;;8.87;7.40;;;3.80;1.00;;;;;;5095118;28;20759;-69
2021/03/19 00:32:49;;;;;;;11.27;9.20;;;3.90;99.90;;;;;;5095224;28;20266;-69
2021/03/19 00:35:15;;;;;;;9.90;8.30;;;3.80;99.90;;;;;;5094595;28;20520;-68
2021/03/19 00:37:41;;;;;;;11.47;8.73;;;3.80;99.90;;;;;;5094619;28;20847;-69
2021/03/19 00:40:12;;;;;;;10.63;8.05;;;4.00;99.90;;;;;;5095041;28;20212;-69
2021/03/19 00:42:39;;;;;;;11.80;9.32;;;3.90;99.90;;;;;;5095455;28;20597;-69
2021/03/19 00:45:07;;;;;;;12.95;8.73;;;4.00;99.90;;;;;;5095161;28;20292;-69
2021/03/19 00:47:33;;;;;;;16.15;10.45;;;4.00;99.90;;;;;;5094862;28;20187;-69
2021/03/19 00:49:59;;;;;;;11.73;9.03;;;3.90;99.90;;;;;;5094786;28;20183;-69
2021/03/19 00:52:25;;;;;;;11.40;9.27;;;4.00;99.90;;;;;;5094685;28;20328;-69
2021/03/19 00:54:51;;;;;;;11.07;9.90;;;4.10;99.90;;;;;;5094669;28;20199;-69
2021/03/19 00:57:16;;;;;;;16.47;9.80;;;4.00;99.90;;;;;;5094619;28;20159;-69
2021/03/19 00:59:42;;;;;;;14.77;10.27;;;3.90;99.90;;;;;;5094631;28;20246;-69
2021/03/19 01:02:08;;;;;;;13.33;10.10;;;4.10;99.90;;;;;;5094498;28;20187;-69
2021/03/19 01:04:34;;;;;;;13.15;10.35;;;3.60;99.90;;;;;;5094489;28;20635;-69
2021/03/19 01:06:59;;;;;;;13.17;9.33;;;3.60;99.90;;;;;;5094350;28;20233;-69
2021/03/19 01:09:25;;;;;;;11.23;8.97;;;3.50;99.90;;;;;;5094366;28;20210;-69
2021/03/19 01:11:50;;;;;;;14.57;10.53;;;3.60;99.90;;;;;;5094287;28;20187;-69
2021/03/19 01:14:16;;;;;;;15.10;9.47;;;3.70;99.90;;;;;;5094382;28;20171;-69
2021/03/19 01:16:42;;;;;;;13.20;8.87;;;3.70;99.90;;;;;;5094316;28;20195;-69
2021/03/19 01:19:08;;;;;;;12.07;8.82;;;3.70;99.90;;;;;;5094236;28;20206;-69
2021/03/19 01:21:34;;;;;;;13.47;10.33;;;3.60;92.10;;;;;;5094130;28;20554;-69
2021/03/19 01:23:59;;;;;;;14.63;10.57;;;3.40;99.90;;;;;;5094117;28;20384;-68
2021/03/19 01:26:25;;;;;;;12.20;10.20;;;3.50;99.90;;;;;;5094122;28;20175;-69
2021/03/19 01:28:51;;;;;;;15.90;9.80;;;3.70;99.90;;;;;;5094064;28;20242;-69
2021/03/19 01:31:17;;;;;;;13.55;10.07;;;3.60;99.90;;;;;;5094106;28;20329;-69
2021/03/19 01:33:42;;;;;;;15.10;10.90;;;3.70;99.90;;;;;;5093960;28;20246;-69
2021/03/19 01:36:08;;;;;;;13.97;9.80;;;3.70;99.90;;;;;;5094143;28;20171;-69
2021/03/19 01:38:35;;;;;;;15.13;10.60;;;3.80;99.90;;;;;;5093891;28;20166;-69
2021/03/19 01:41:02;;;;;;;14.85;10.05;;;3.80;99.90;;;;;;5093948;28;20807;-69
2021/03/19 01:43:30;;;;;;;14.15;11.38;;;3.80;99.90;;;;;;5093749;28;20625;-68
2021/03/19 01:46:34;;;;;;;14.32;10.55;;;3.70;99.90;;;;;;5093947;28;20175;-69
2021/03/19 01:49:38;;;;;;;17.75;10.55;;;3.60;99.90;;;;;;5093643;28;20167;-69
2021/03/19 01:52:41;;;;;;;13.65;10.48;;;3.40;99.90;;;;;;5093579;28;20655;-69
2021/03/19 01:55:43;;;;;;;13.07;10.32;;;3.40;99.90;;;;;;5093750;28;20163;-69
2021/03/19 01:58:46;;;;;;;17.52;11.93;;;3.40;99.90;;;;;;5093593;28;20574;-69
2021/03/19 02:01:49;;;;;;;22.30;11.52;;;3.40;1.00;;;;;;5093626;28;20171;-69
2021/03/19 02:04:52;;;;;;;16.52;12.40;;;3.50;1.00;;;;;;5093455;28;20178;-69
2021/03/19 02:07:55;;;;;;;20.17;12.48;;;3.50;1.00;;;;;;5093291;28;20179;-68
2021/03/19 02:10:58;;;;;;;15.27;12.35;;;3.40;1.00;;;;;;5093555;28;20187;-69
2021/03/19 02:14:00;;;;;;;21.00;12.43;;;3.70;99.90;;;;;;5093202;28;20232;-68
2021/03/19 02:17:03;;;;;;;17.20;12.80;;;3.80;99.90;;;;;;5093314;28;20197;-68
2021/03/19 02:20:06;;;;;;;21.75;13.13;;;3.80;99.90;;;;;;5093228;28;20189;-69
2021/03/19 02:23:09;;;;;;;16.73;12.85;;;3.60;99.90;;;;;;5093138;28;20198;-69
2021/03/19 02:26:12;;;;;;;15.18;10.95;;;3.80;99.90;;;;;;5093717;28;20670;-69
2021/03/19 02:29:15;;;;;;;18.35;13.25;;;3.70;99.90;;;;;;5093404;28;20179;-69
2021/03/19 02:32:07;;;;;;;16.70;12.48;;;3.60;99.90;;;;;;5093224;28;20248;-69
2021/03/19 02:35:02;;;;;;;17.63;12.50;;;3.50;99.90;;;;;;5093093;28;20175;-69
2021/03/19 02:37:32;;;;;;;19.02;12.15;;;3.40;99.90;;;;;;5093249;28;20163;-68
2021/03/19 02:39:58;;;;;;;18.20;12.80;;;3.30;99.90;;;;;;5093279;28;20216;-69
2021/03/19 02:42:28;;;;;;;16.43;12.00;;;3.20;99.90;;;;;;5093402;28;20183;-69
2021/03/19 02:44:54;;;;;;;16.77;12.30;;;3.10;99.90;;;;;;5091874;28;20183;-69
2021/03/19 02:47:20;;;;;;;19.00;11.90;;;3.20;1.00;;;;;;5092874;28;20164;-69
2021/03/19 02:49:46;;;;;;;17.35;12.25;;;3.20;99.90;;;;;;5092747;28;20568;-69
2021/03/19 02:52:13;;;;;;;17.67;12.75;;;3.20;99.90;;;;;;5092889;28;20179;-69
2021/03/19 02:54:40;;;;;;;17.38;12.82;;;3.20;99.90;;;;;;5093274;28;20516;-69
2021/03/19 02:57:06;;;;;;;15.93;12.13;;;3.10;99.90;;;;;;5092779;28;20176;-69
2021/03/19 02:59:31;;;;;;;18.40;12.50;;;3.00;99.90;;;;;;5094336;28;20171;-69
2021/03/19 03:01:57;;;;;;;16.73;12.40;;;3.00;99.90;;;;;;5096768;28;20187;-69
2021/03/19 03:04:22;;;;;;;17.40;11.80;;;2.80;1.00;;;;;;5096835;28;20167;-69
2021/03/19 03:06:54;;;;;;;17.43;12.50;;;2.70;1.00;;;;;;5096856;28;20221;-69
2021/03/19 03:09:24;;;;;;;23.70;14.05;;;2.70;1.00;;;;;;5097014;28;20249;-68
2021/03/19 03:11:50;;;;;;;19.17;11.50;;;2.50;4.60;;;;;;5096587;28;20198;-68
2021/03/19 03:14:19;;;;;;;18.67;12.02;;;2.60;99.90;;;;;;5096652;28;20186;-69
2021/03/19 03:16:45;;;;;;;17.85;12.25;;;2.50;99.90;;;;;;5096826;28;20155;-69
2021/03/19 03:19:15;;;;;;;20.05;12.95;;;2.60;1.00;;;;;;5096868;28;20210;-69
2021/03/19 03:21:41;;;;;;;19.75;12.13;;;2.70;99.90;;;;;;5096498;28;20210;-69
2021/03/19 03:24:07;;;;;;;25.43;14.03;;;2.70;99.90;;;;;;5096674;28;20573;-69
2021/03/19 03:26:33;;;;;;;21.27;12.30;;;3.00;99.90;;;;;;5096401;28;20640;-68
2021/03/19 03:28:59;;;;;;;14.43;10.87;;;3.00;1.00;;;;;;5096581;28;20179;-69
2021/03/19 03:31:25;;;;;;;19.48;13.35;;;2.50;1.00;;;;;;5096299;28;20232;-69
2021/03/19 03:33:50;;;;;;;16.03;12.17;;;2.30;43.50;;;;;;5096491;28;20164;-69
2021/03/19 03:36:16;;;;;;;18.53;12.57;;;2.40;99.90;;;;;;5096274;28;20171;-69
2021/03/19 03:38:42;;;;;;;22.13;13.73;;;2.30;99.90;;;;;;5096541;28;20317;-69
2021/03/19 03:41:16;;;;;;;16.17;11.90;;;2.40;1.00;;;;;;5096490;28;20377;-69
2021/03/19 03:43:42;;;;;;;16.25;12.18;;;2.20;99.90;;;;;;5096574;28;20551;-69
2021/03/19 03:46:12;;;;;;;14.90;12.40;;;2.30;1.00;;;;;;5096329;28;20164;-69
2021/03/19 03:48:38;;;;;;;19.83;12.95;;;2.30;99.90;;;;;;5095879;28;20997;-69
2021/03/19 03:51:06;;;;;;;19.20;13.00;;;2.10;99.90;;;;;;5095858;28;20281;-69
2021/03/19 03:53:32;;;;;;;18.52;13.00;;;2.10;1.00;;;;;;5095856;28;20179;-69
2021/03/19 03:55:58;;;;;;;22.10;13.80;;;2.10;1.00;;;;;;5095982;28;20170;-69
2021/03/19 03:58:24;;;;;;;19.70;13.98;;;2.10;1.00;;;;;;5096983;28;20206;-69
2021/03/19 04:00:49;;;;;;;18.80;13.40;;;2.40;1.00;;;;;;5095741;28;20172;-69
2021/03/19 04:03:15;;;;;;;19.80;13.53;;;2.50;99.90;;;;;;5095688;28;20187;-67
2021/03/19 04:05:43;;;;;;;22.07;15.10;;;2.50;1.00;;;;;;5095602;28;20497;-67
2021/03/19 04:08:11;;;;;;;19.92;13.70;;;2.70;1.00;;;;;;5095543;28;20183;-67
2021/03/19 04:10:38;;;;;;;18.33;12.30;;;2.50;1.00;;;;;;5094104;28;20283;-68
2021/03/19 04:13:06;;;;;;;16.05;12.32;;;2.50;99.90;;;;;;5095470;28;20195;-67
2021/03/19 04:15:32;;;;;;;14.93;11.88;;;2.50;99.90;;;;;;5095447;28;20233;-68
2021/03/19 04:18:04;;;;;;;19.48;13.77;;;2.60;99.90;;;;;;5095437;28;20179;-67
2021/03/19 04:20:30;;;;;;;17.33;12.85;;;2.60;99.90;;;;;;5095452;28;20166;-68
2021/03/19 04:22:56;;;;;;;17.48;12.98;;;2.60;99.90;;;;;;5095437;28;20191;-68
2021/03/19 04:25:22;;;;;;;19.10;13.35;;;2.60;99.90;;;;;;5095315;28;20641;-69
2021/03/19 04:27:53;;;;;;;21.52;13.52;;;2.70;99.90;;;;;;5095296;28;20221;-68
2021/03/19 04:30:21;;;;;;;18.63;13.23;;;2.70;99.90;;;;;;5095409;28;20198;-68
2021/03/19 04:32:48;;;;;;;19.05;12.25;;;2.60;99.90;;;;;;5095406;28;20186;-68
2021/03/19 04:35:15;;;;;;;17.17;12.10;;;2.60;99.90;;;;;;5095180;28;20168;-68
2021/03/19 04:37:41;;;;;;;23.80;14.48;;;2.50;99.90;;;;;;5095110;28;20505;-68
2021/03/19 04:40:08;;;;;;;19.17;13.37;;;2.60;99.90;;;;;;5095331;28;20217;-68
2021/03/19 04:42:33;;;;;;;22.23;13.07;;;2.80;99.90;;;;;;5095103;28;20449;-68
2021/03/19 04:44:59;;;;;;;17.80;13.43;;;2.80;99.90;;;;;;5094893;28;20190;-68
2021/03/19 04:47:25;;;;;;;17.57;12.93;;;2.70;99.90;;;;;;5094845;28;20167;-69
2021/03/19 04:49:50;;;;;;;16.10;12.30;;;2.60;99.90;;;;;;5095032;28;20424;-68
2021/03/19 04:52:16;;;;;;;21.70;13.70;;;2.50;99.90;;;;;;5094874;28;20187;-68
2021/03/19 04:54:42;;;;;;;19.43;12.60;;;2.50;99.90;;;;;;5094731;28;20178;-68
2021/03/19 04:57:07;;;;;;;17.00;11.50;;;2.50;99.90;;;;;;5095034;28;20172;-68
2021/03/19 04:59:33;;;;;;;17.67;11.93;;;2.40;99.90;;;;;;5094837;28;20531;-68
2021/03/19 05:02:00;;;;;;;17.17;11.60;;;2.50;27.50;;;;;;5094462;28;20576;-68
2021/03/19 05:04:26;;;;;;;23.45;10.50;;;2.70;44.10;;;;;;5094628;28;20175;-68
2021/03/19 05:06:57;;;;;;;17.77;12.18;;;2.70;33.10;;;;;;5094464;28;20308;-68
2021/03/19 05:09:22;;;;;;;16.45;11.60;;;2.70;38.70;;;;;;5094358;28;20206;-68
2021/03/19 05:11:48;;;;;;;19.87;12.97;;;2.80;39.50;;;;;;5094554;28;20179;-68
2021/03/19 05:14:16;;;;;;;16.73;11.37;;;2.70;56.00;;;;;;5094389;28;20164;-68
2021/03/19 05:16:41;;;;;;;21.02;13.70;;;2.80;31.50;;;;;;5094575;28;20166;-68
2021/03/19 05:19:07;;;;;;;18.53;12.87;;;3.00;24.00;;;;;;5094357;28;20167;-68
2021/03/19 05:21:32;;;;;;;18.27;11.87;;;3.00;17.00;;;;;;5094053;28;20176;-68
2021/03/19 05:23:58;;;;;;;17.00;12.40;;;3.10;19.80;;;;;;5094379;28;20540;-68
2021/03/19 05:26:23;;;;;;;18.90;12.77;;;3.10;15.50;;;;;;5094100;28;20532;-68
2021/03/19 05:28:49;;;;;;;18.70;11.67;;;3.00;34.10;;;;;;5094134;28;20167;-67
2021/03/19 05:31:14;;;;;;;20.57;13.40;;;2.90;28.20;;;;;;5093946;28;20563;-68
2021/03/19 05:33:52;;;;;;;20.27;13.50;;;2.90;99.90;;;;;;5094056;28;20333;-68
2021/03/19 05:36:23;;;;;;;18.67;12.55;;;2.80;99.90;;;;;;5094100;28;20288;-67
2021/03/19 05:38:50;;;;;;;22.10;13.60;;;2.90;99.90;;;;;;5094551;28;20627;-68
2021/03/19 05:41:17;;;;;;;22.08;12.95;;;2.80;99.90;;;;;;5093744;28;20190;-68
2021/03/19 05:44:06;;;;;;;22.63;14.40;;;2.70;99.90;;;;;;5093732;28;20608;-68
2021/03/19 05:46:37;;;;;;;16.83;12.75;;;2.60;99.90;;;;;;5080327;28;20195;-68
2021/03/19 05:49:09;;;;;;;21.63;13.40;;;2.80;99.90;;;;;;5094172;28;20644;-68
2021/03/19 05:51:37;;;;;;;23.52;15.25;;;2.40;99.90;;;;;;5093846;28;20536;-68
2021/03/19 05:54:35;;;;;;;21.98;14.40;;;2.50;99.90;;;;;;5093489;28;20163;-68
2021/03/19 05:57:21;;;;;;;23.15;13.93;;;2.30;99.90;;;;;;5093529;28;20537;-67
2021/03/19 05:59:49;;;;;;;21.75;12.80;;;2.40;99.90;;;;;;5092906;28;20175;-68
2021/03/19 06:02:25;;;;;;;18.17;12.48;;;2.20;99.90;;;;;;5093587;28;20652;-68
2021/03/19 06:05:05;;;;;;;18.90;12.88;;;2.10;99.90;;;;;;5093434;28;20159;-68
2021/03/19 06:07:37;;;;;;;21.85;15.05;;;2.10;1.00;;;;;;5093394;28;20190;-68
2021/03/19 06:10:17;;;;;;;21.25;13.27;;;2.20;99.90;;;;;;5093248;28;20222;-68
2021/03/19 06:12:43;;;;;;;18.20;12.90;;;2.40;99.90;;;;;;5093116;28;20252;-68
2021/03/19 06:15:22;;;;;;;19.30;11.90;;;2.40;99.90;;;;;;5093460;28;20191;-67
2021/03/19 06:17:49;;;;;;;20.70;12.68;;;2.50;99.90;;;;;;5093587;28;20228;-68
2021/03/19 06:20:17;;;;;;;21.95;11.77;;;2.50;99.90;;;;;;5093231;28;20191;-68
2021/03/19 06:22:48;;;;;;;17.48;12.70;;;2.60;99.90;;;;;;5093096;28;20193;-67
2021/03/19 06:25:22;;;;;;;15.52;11.05;;;2.70;99.90;;;;;;5092667;28;20159;-68
2021/03/19 06:27:54;;;;;;;19.13;12.05;;;2.70;87.00;;;;;;5092846;28;20269;-67
2021/03/19 06:30:29;;;;;;;19.23;14.10;;;2.90;51.80;;;;;;5092881;28;20187;-67
2021/03/19 06:33:06;;;;;;;21.08;12.00;;;2.80;21.60;;;;;;5092913;28;20586;-66
2021/03/19 06:35:35;;;;;;;18.52;12.88;;;2.90;44.00;;;;;;5092713;28;20239;-68
2021/03/19 06:38:45;;;;;;;19.13;11.90;;;3.10;1.00;;;;;;5092651;28;20163;-68
2021/03/19 06:41:22;;;;;;;17.23;12.35;;;3.20;1.00;;;;;;5055102;28;20186;-68
2021/03/19 06:43:51;;;;;;;17.02;11.60;;;3.30;1.00;;;;;;5092602;28;20159;-68
2021/03/19 06:46:51;;;;;;;20.00;11.90;;;3.40;1.00;;;;;;5092785;28;20160;-68
2021/03/19 06:49:17;;;;;;;18.88;12.48;;;3.20;1.00;;;;;;5092795;28;20156;-68
2021/03/19 06:51:49;;;;;;;16.52;11.73;;;3.20;1.00;;;;;;5092399;28;20583;-67
2021/03/19 06:54:23;;;;;;;18.42;11.52;;;3.40;1.00;;;;;;5092538;28;20174;-67
2021/03/19 06:57:08;;;;;;;19.58;12.50;;;3.50;1.00;;;;;;5093095;28;20193;-67
2021/03/19 06:59:55;;;;;;;20.13;12.13;;;3.30;1.00;;;;;;5092474;28;20175;-66
2021/03/19 07:02:33;;;;;;;18.02;11.73;;;3.60;1.00;;;;;;5093664;28;20552;-68
2021/03/19 07:05:38;;;;;;;19.40;11.75;;;3.60;1.00;;;;;;5092726;28;20231;-68
2021/03/19 07:08:22;;;;;;;18.30;11.40;;;3.50;1.00;;;;;;5092587;28;20191;-68
2021/03/19 07:11:13;;;;;;;20.00;12.25;;;3.50;1.00;;;;;;5092696;28;20206;-68
2021/03/19 07:13:55;;;;;;;17.55;11.52;;;3.50;1.00;;;;;;5092945;28;20233;-67
2021/03/19 07:16:41;;;;;;;16.15;11.38;;;3.60;1.00;;;;;;5092588;28;20156;-67
2021/03/19 07:19:13;;;;;;;20.95;12.45;;;3.60;1.00;;;;;;5092854;28;20148;-69
2021/03/19 07:22:19;;;;;;;18.58;11.80;;;3.60;1.00;;;;;;5092518;28;20277;-68
2021/03/19 07:25:09;;;;;;;20.38;11.82;;;3.80;1.00;;;;;;5092370;28;20693;-68
2021/03/19 07:27:34;;;;;;;21.08;11.77;;;4.00;1.00;;;;;;5092191;28;20209;-68
2021/03/19 07:30:23;;;;;;;20.83;12.40;;;3.90;1.00;;;;;;5090838;28;20667;-67
2021/03/19 07:33:17;;;;;;;17.50;12.02;;;4.00;1.00;;;;;;5090990;28;20275;-68
2021/03/19 07:36:00;;;;;;;21.88;12.10;;;4.20;1.00;;;;;;5092544;28;20513;-68
2021/03/19 07:38:35;;;;;;;15.32;11.35;;;4.30;1.00;;;;;;5092502;28;20628;-68
2021/03/19 07:41:25;;;;;;;18.00;11.13;;;4.30;1.00;;;;;;5092877;28;20195;-68
2021/03/19 07:44:21;;;;;;;17.08;11.27;;;4.30;1.00;;;;;;5092056;28;20598;-68
2021/03/19 07:46:56;;;;;;;20.85;12.10;;;4.60;1.00;;;;;;5095661;28;20600;-69
2021/03/19 07:49:34;;;;;;;15.38;9.80;;;4.50;1.00;;;;;;5095703;28;20178;-69
2021/03/19 07:52:24;;;;;;;18.50;11.48;;;4.30;1.00;;;;;;5096205;28;20252;-68
2021/03/19 07:55:01;;;;;;;18.52;9.77;;;4.40;1.00;;;;;;5095779;28;20163;-67
2021/03/19 07:57:35;;;;;;;17.70;10.80;;;4.50;1.00;;;;;;5095636;28;20181;-68
2021/03/19 08:00:25;;;;;;;14.95;10.70;;;4.60;1.00;;;;;;5095506;28;20148;-68
2021/03/19 08:02:56;;;;;;;13.85;9.27;;;4.50;1.00;;;;;;5095634;28;20183;-68
2021/03/19 08:05:28;;;;;;;19.25;11.50;;;4.50;1.00;;;;;;5095765;28;20546;-68
2021/03/19 08:08:05;;;;;;;20.67;10.10;;;4.70;1.00;;;;;;5095913;28;20190;-69
2021/03/19 08:10:39;;;;;;;17.65;8.98;;;4.80;1.00;;;;;;5095575;28;20187;-69
2021/03/19 08:13:24;;;;;;;15.15;9.52;;;5.00;1.00;;;;;;5095605;28;20183;-68
2021/03/19 08:16:06;;;;;;;14.30;8.65;;;4.90;1.00;;;;;;5096105;28;20193;-69
2021/03/19 08:18:51;;;;;;;16.55;9.10;;;4.80;1.00;;;;;;5095809;28;20158;-68
2021/03/19 08:21:23;;;;;;;13.48;9.02;;;4.90;1.00;;;;;;5095216;28;20171;-69
2021/03/19 08:24:07;;;;;;;13.50;8.63;;;5.10;1.00;;;;;;5095347;28;20231;-68
2021/03/19 08:26:45;;;;;;;14.90;8.90;;;5.10;1.00;;;;;;5095565;28;20159;-69
2021/03/19 08:29:19;;;;;;;14.70;9.38;;;5.10;1.00;;;;;;5095209;28;20600;-69
2021/03/19 08:32:04;;;;;;;14.25;8.18;;;5.20;1.00;;;;;;5094792;28;20195;-69
2021/03/19 08:34:32;;;;;;;13.18;8.05;;;5.40;1.00;;;;;;5094871;28;20162;-69
2021/03/19 08:36:58;;;;;;;18.38;9.23;;;5.40;1.00;;;;;;5094429;28;20174;-68
2021/03/19 08:39:23;;;;;;;12.10;8.77;;;5.60;1.00;;;;;;5094728;28;20163;-69
2021/03/19 08:41:53;;;;;;;11.03;6.77;;;5.50;1.00;;;;;;5094803;28;20216;-69
2021/03/19 08:44:22;;;;;;;15.27;7.70;;;5.50;1.00;;;;;;5093502;28;20178;-68
2021/03/19 08:47:22;;;;;;;10.88;7.63;;;5.50;1.00;;;;;;5094557;28;20242;-69
2021/03/19 08:49:51;;;;;;;10.13;7.55;;;5.80;1.00;;;;;;5094825;28;20236;-69
2021/03/19 08:52:29;;;;;;;14.10;7.43;;;5.80;1.00;;;;;;5094957;28;20179;-69
2021/03/19 08:55:16;;;;;;;11.15;7.18;;;6.40;1.00;;;;;;5094306;28;20162;-69
2021/03/19 08:57:56;;;;;;;9.05;5.75;;;6.20;1.00;;;;;;5079963;28;20547;-68
2021/03/19 09:00:25;;;;;;;11.43;5.65;;;6.40;1.00;;;;;;5094403;28;20168;-68
2021/03/19 09:02:54;;;;;;;8.27;5.70;;;6.30;1.00;;;;;;5093980;28;20187;-68
2021/03/19 09:05:46;;;;;;;13.75;6.68;;;6.50;1.00;;;;;;5092747;28;20233;-69
2021/03/19 09:08:28;;;;;;;8.38;5.75;;;6.50;1.00;;;;;;5062681;28;20282;-68
2021/03/19 09:10:53;;;;;;;11.48;6.53;;;6.00;1.00;;;;;;5094355;28;20194;-68
2021/03/19 09:13:22;;;;;;;7.20;5.50;;;6.50;1.00;;;;;;5093953;28;20183;-69
2021/03/19 09:15:50;;;;;;;10.07;6.53;;;6.80;1.00;;;;;;5093989;28;20640;-68
2021/03/19 09:18:45;;;;;;;12.23;8.63;;;6.80;1.00;;;;;;5093824;28;20540;-68
2021/03/19 09:21:33;;;;;;;9.38;6.45;;;7.00;1.00;;;;;;5093834;28;20163;-68
2021/03/19 09:24:06;;;;;;;7.95;5.32;;;7.00;1.00;;;;;;5093555;28;20171;-69
2021/03/19 09:27:19;;;;;;;10.13;6.28;;;6.70;1.00;;;;;;5093627;28;20498;-69
2021/03/19 09:29:45;;;;;;;8.02;6.25;;;6.50;1.00;;;;;;5086568;28;20207;-69
2021/03/19 09:32:29;;;;;;;6.93;4.87;;;6.20;1.00;;;;;;5093538;28;20188;-68
2021/03/19 09:34:54;;;;;;;8.55;5.68;;;5.80;1.00;;;;;;5093315;28;20197;-69
2021/03/19 09:37:35;;;;;;;11.53;4.90;;;6.20;1.00;;;;;;5093360;28;20175;-68
2021/03/19 09:40:07;;;;;;;15.82;5.75;;;6.70;1.00;;;;;;5093200;28;20513;-68
2021/03/19 09:42:32;;;;;;;5.78;4.53;;;7.00;1.00;;;;;;5093077;28;20187;-69
2021/03/19 09:44:58;;;;;;;5.33;4.03;;;7.30;1.00;;;;;;5093270;28;20170;-68
2021/03/19 09:47:28;;;;;;;6.57;3.70;;;7.30;1.00;;;;;;5093316;28;20168;-68
2021/03/19 09:50:13;;;;;;;7.55;4.35;;;7.20;1.00;;;;;;5093367;28;20191;-68
2021/03/19 09:52:53;;;;;;;6.18;4.68;;;7.00;1.00;;;;;;5092791;28;20191;-69
2021/03/19 09:55:21;;;;;;;11.70;5.03;;;6.70;1.00;;;;;;5093264;28;20209;-69
2021/03/19 09:57:47;;;;;;;8.32;5.10;;;7.00;1.00;;;;;;5093195;28;20600;-68
2021/03/19 10:00:23;;;;;;;5.45;3.33;;;7.30;1.00;;;;;;5093245;28;20683;-68
2021/03/19 10:02:49;;;;;;;5.30;3.75;;;7.20;1.00;;;;;;5092975;28;20592;-68
2021/03/19 10:05:26;;;;;;;5.70;3.92;;;7.30;1.00;;;;;;5093719;28;20642;-68
2021/03/19 10:07:51;;;;;;;5.45;3.58;;;7.30;1.00;;;;;;5092847;28;20191;-68
2021/03/19 10:10:27;;;;;;;9.00;4.03;;;7.80;1.00;;;;;;5092667;28;20217;-68
2021/03/19 10:13:22;;;;;;;5.45;3.60;;;8.10;1.00;;;;;;5093015;28;20198;-68
2021/03/19 10:15:53;;;;;;;5.55;4.15;;;8.00;1.00;;;;;;5092426;28;20204;-69
2021/03/19 10:18:31;;;;;;;5.22;4.13;;;8.10;1.00;;;;;;5093443;28;20151;-67
2021/03/19 10:21:09;;;;;;;4.00;3.35;;;8.40;1.00;;;;;;5092913;28;20152;-68
2021/03/19 10:23:56;;;;;;;7.95;3.17;;;8.40;1.00;;;;;;5092425;28;20194;-68
2021/03/19 10:26:36;;;;;;;6.00;3.20;;;9.10;1.00;;;;;;5092434;28;20167;-68
2021/03/19 10:29:17;;;;;;;3.80;3.08;;;8.70;99.90;;;;;;5092571;28;20184;-68
2021/03/19 10:31:50;;;;;;;3.45;2.60;;;8.30;99.90;;;;;;5092578;28;20191;-68
2021/03/19 10:34:36;;;;;;;3.83;2.85;;;8.50;99.90;;;;;;5092360;28;20175;-68
2021/03/19 10:37:04;;;;;;;4.10;2.35;;;8.60;99.90;;;;;;5078325;28;20184;-68
2021/03/19 10:39:45;;;;;;;6.05;3.47;;;8.40;99.90;;;;;;5092890;28;20163;-68
2021/03/19 10:42:38;;;;;;;4.97;3.20;;;8.50;99.90;;;;;;5092455;28;20190;-69
2021/03/19 10:45:06;;;;;;;4.88;3.53;;;9.40;99.90;;;;;;5081732;28;20513;-68
2021/03/19 10:47:43;;;;;;;3.63;2.08;;;9.20;99.90;;;;;;5092343;28;20163;-69
2021/03/19 10:50:15;;;;;;;4.07;2.63;;;8.70;99.90;;;;;;5092916;28;20188;-68
2021/03/19 10:52:46;;;;;;;3.25;2.65;;;8.90;99.90;;;;;;5091308;28;20187;-68
2021/03/19 10:55:17;;;;;;;2.97;2.38;;;9.00;99.90;;;;;;5092936;28;20170;-68
2021/03/19 10:57:43;;;;;;;5.60;2.72;;;9.10;99.90;;;;;;5093139;28;20191;-68
2021/03/19 11:00:41;;;;;;;5.43;2.70;;;8.80;99.90;;;;;;5092382;28;20168;-68
2021/03/19 11:03:23;;;;;;;4.03;2.55;;;9.10;99.90;;;;;;5077301;28;20200;-68
2021/03/19 11:05:57;;;;;;;3.60;2.10;;;9.50;99.90;;;;;;5092789;28;20183;-68
2021/03/19 11:08:23;;;;;;;5.22;2.95;;;9.80;99.90;;;;;;5092935;28;20418;-68
2021/03/19 11:10:52;;;;;;;6.30;2.57;;;9.70;99.90;;;;;;5093427;28;20191;-68
2021/03/19 11:13:25;;;;;;;3.00;2.38;;;9.50;99.90;;;;;;5092319;28;20187;-68
2021/03/19 11:15:53;;;;;;;3.10;2.10;;;9.60;99.90;;;;;;5092676;28;20148;-68
2021/03/19 11:18:39;;;;;;;3.05;2.25;;;9.90;99.90;;;;;;5092197;28;20489;-68
2021/03/19 11:21:07;;;;;;;3.60;3.17;;;10.20;99.90;;;;;;5094538;28;20254;-68
2021/03/19 11:23:36;;;;;;;5.77;3.07;;;10.30;99.90;;;;;;5095981;28;20428;-68
2021/03/19 11:26:28;;;;;;;3.37;2.80;;;10.20;99.90;;;;;;5097475;28;20409;-67
2021/03/19 11:29:29;;;;;;;2.07;1.80;;;10.20;99.90;;;;;;5096159;28;20406;-69
2021/03/19 11:32:05;;;;;;;4.73;2.47;;;10.20;99.90;;;;;;5095035;28;20427;-69
2021/03/19 11:34:44;;;;;;;5.22;1.55;;;10.10;99.90;;;;;;5097914;28;20484;-68
2021/03/19 11:37:14;;;;;;;2.57;1.93;;;10.10;99.90;;;;;;5095652;28;20153;-69
2021/03/19 11:40:08;;;;;;;2.25;1.83;;;9.20;99.90;;;;;;5095813;28;20426;-69
2021/03/19 11:43:03;;;;;;;3.90;2.77;;;9.30;99.90;;;;;;5095561;28;20540;-68
2021/03/19 11:45:33;;;;;;;5.40;2.00;;;9.70;99.90;;;;;;5092294;28;20402;-68
2021/03/19 11:47:59;;;;;;;2.83;1.90;;;9.80;99.90;;;;;;5095678;28;20413;-68
2021/03/19 11:50:32;;;;;;;4.10;2.10;;;10.50;99.90;;;;;;5095774;28;20454;-69
2021/03/19 11:53:04;;;;;;;3.83;2.10;;;10.40;99.90;;;;;;5095817;28;20415;-69
2021/03/19 11:55:34;;;;;;;2.23;2.03;;;9.40;99.90;;;;;;5095899;28;20419;-69
2021/03/19 11:58:01;;;;;;;2.60;1.60;;;9.20;99.90;;;;;;5095323;28;20766;-68
2021/03/19 12:00:33;;;;;;;1.73;1.40;;;9.30;99.90;;;;;;5095167;28;20411;-69
2021/03/19 12:03:02;;;;;;;3.08;2.40;;;10.00;99.90;;;;;;5095445;28;20187;-68
2021/03/19 12:05:29;;;;;;;3.70;1.97;;;10.50;99.90;;;;;;5095285;28;20176;-69
2021/03/19 12:07:54;;;;;;;3.03;1.90;;;11.20;99.90;;;;;;5095621;28;20454;-69
2021/03/19 12:10:27;;;;;;;4.93;1.80;;;11.10;99.90;;;;;;5095289;28;20479;-68
2021/03/19 12:12:52;;;;;;;2.77;1.70;;;10.60;99.90;;;;;;5095222;28;20714;-69
2021/03/19 12:15:19;;;;;;;2.20;1.47;;;10.60;99.90;;;;;;5095213;28;20405;-68
2021/03/19 12:17:45;;;;;;;3.97;1.60;;;11.00;99.90;;;;;;5095405;28;20637;-68
2021/03/19 12:20:12;;;;;;;3.83;2.27;;;10.00;99.90;;;;;;5094592;28;20401;-68
2021/03/19 12:22:40;;;;;;;2.90;2.17;;;10.10;99.90;;;;;;5094060;28;20488;-68
2021/03/19 12:25:06;;;;;;;1.97;1.60;;;10.80;99.90;;;;;;5094421;28;20405;-68
2021/03/19 12:27:32;;;;;;;5.33;1.73;;;11.30;99.90;;;;;;5094993;28;20865;-68
2021/03/19 12:29:57;;;;;;;3.20;1.67;;;11.50;99.90;;;;;;5094329;28;20460;-69
2021/03/19 12:32:23;;;;;;;3.20;1.60;;;11.60;99.90;;;;;;5093272;28;20194;-68
2021/03/19 12:34:49;;;;;;;4.07;2.20;;;11.90;99.90;;;;;;5094919;28;20242;-68
2021/03/19 12:37:16;;;;;;;4.47;1.90;;;11.90;99.90;;;;;;5094369;28;20178;-69
2021/03/19 12:39:41;;;;;;;2.20;1.73;;;12.70;99.90;;;;;;5094736;28;20228;-69
2021/03/19 12:42:08;;;;;;;3.67;1.53;;;13.20;99.90;;;;;;5094530;28;20824;-69
2021/03/19 12:44:33;;;;;;;3.47;1.60;;;12.20;99.90;;;;;;5094591;28;20174;-67
2021/03/19 12:47:00;;;;;;;4.30;1.90;;;11.90;99.90;;;;;;5094662;28;20405;-68
2021/03/19 12:49:26;;;;;;;2.23;1.50;;;11.10;99.90;;;;;;5094549;28;20666;-67
2021/03/19 12:51:52;;;;;;;2.07;1.27;;;10.90;99.90;;;;;;5094423;28;20429;-67
2021/03/19 12:54:19;;;;;;;1.63;1.47;;;11.10;99.90;;;;;;5094189;28;20397;-69
2021/03/19 12:56:44;;;;;;;5.17;1.57;;;11.60;99.90;;;;;;5094567;28;20179;-68
2021/03/19 12:59:10;;;;;;;2.73;1.20;;;12.50;99.90;;;;;;5094316;28;20410;-68
2021/03/19 13:01:36;;;;;;;2.23;1.03;;;11.60;99.90;;;;;;5094200;28;20304;-68
2021/03/19 13:04:02;;;;;;;2.10;1.30;;;11.60;99.90;;;;;;5094298;28;20232;-68
2021/03/19 13:06:28;;;;;;;2.70;1.10;;;11.40;99.90;;;;;;5094018;28;20191;-68
2021/03/19 13:08:54;;;;;;;1.70;1.00;;;11.50;99.90;;;;;;5094675;28;20797;-68
2021/03/19 13:11:20;;;;;;;1.60;1.07;;;11.10;99.90;;;;;;5093918;28;20229;-68
2021/03/19 13:13:46;;;;;;;1.57;0.90;;;10.70;99.90;;;;;;5094015;28;20474;-68
2021/03/19 13:16:12;;;;;;;3.10;1.13;;;10.80;99.90;;;;;;5093730;28;20501;-68
2021/03/19 13:18:38;;;;;;;2.70;1.10;;;10.90;99.90;;;;;;5094140;28;20167;-68
2021/03/19 13:21:05;;;;;;;1.40;1.00;;;11.10;99.90;;;;;;5094220;28;20384;-69